sensor_id;sensor_type;location;lat;lon;timestamp;P1;durP1;ratioP1;P2;durP2;ratioP2
78740;SDS011;68062;48.726;9.370;2024-02-15T00:00:02;5.57;;;5.27;;
78740;SDS011;68062;48.726;9.370;2024-02-15T00:02:33;6.17;;;5.80;;
78740;SDS011;68062;48.726;9.370;2024-02-15T00:05:03;9.80;;;5.80;;
78740;SDS011;68062;48.726;9.370;2024-02-15T00:07:31;8.20;;;6.00;;
78740;SDS011;68062;48.726;9.370;2024-02-15T00:10:01;7.73;;;4.80;;
78740;SDS011;68062;48.726;9.370;2024-02-15T00:12:30;8.07;;;5.10;;
78740;SDS011;68062;48.726;9.370;2024-02-15T00:14:58;8.20;;;4.70;;
78740;SDS011;68062;48.726;9.370;2024-02-15T00:17:27;6.33;;;5.23;;
78740;SDS011;68062;48.726;9.370;2024-02-15T00:19:55;8.27;;;6.40;;
78740;SDS011;68062;48.726;9.370;2024-02-15T00:22:24;6.00;;;5.57;;
78740;SDS011;68062;48.726;9.370;2024-02-15T00:24:54;6.17;;;5.20;;
78740;SDS011;68062;48.726;9.370;2024-02-15T00:27:21;7.93;;;5.50;;
78740;SDS011;68062;48.726;9.370;2024-02-15T00:29:49;5.50;;;4.70;;
78740;SDS011;68062;48.726;9.370;2024-02-15T00:32:17;6.00;;;5.23;;
78740;SDS011;68062;48.726;9.370;2024-02-15T00:34:46;7.30;;;5.40;;
78740;SDS011;68062;48.726;9.370;2024-02-15T00:37:15;6.43;;;5.00;;
78740;SDS011;68062;48.726;9.370;2024-02-15T00:39:44;11.47;;;5.80;;
78740;SDS011;68062;48.726;9.370;2024-02-15T00:42:11;6.53;;;5.40;;
78740;SDS011;68062;48.726;9.370;2024-02-15T00:44:39;8.43;;;5.27;;
78740;SDS011;68062;48.726;9.370;2024-02-15T00:47:07;8.70;;;5.87;;
78740;SDS011;68062;48.726;9.370;2024-02-15T00:49:37;11.53;;;6.60;;
78740;SDS011;68062;48.726;9.370;2024-02-15T00:52:05;7.07;;;5.40;;
78740;SDS011;68062;48.726;9.370;2024-02-15T00:54:33;6.03;;;5.50;;
78740;SDS011;68062;48.726;9.370;2024-02-15T00:57:02;7.63;;;6.10;;
78740;SDS011;68062;48.726;9.370;2024-02-15T00:59:30;8.60;;;6.10;;
78740;SDS011;68062;48.726;9.370;2024-02-15T01:02:02;7.17;;;5.83;;
78740;SDS011;68062;48.726;9.370;2024-02-15T01:04:31;8.17;;;6.10;;
78740;SDS011;68062;48.726;9.370;2024-02-15T01:06:59;5.77;;;5.40;;
78740;SDS011;68062;48.726;9.370;2024-02-15T01:09:27;5.47;;;4.50;;
78740;SDS011;68062;48.726;9.370;2024-02-15T01:11:55;5.50;;;4.90;;
78740;SDS011;68062;48.726;9.370;2024-02-15T01:14:24;5.63;;;4.47;;
78740;SDS011;68062;48.726;9.370;2024-02-15T01:16:56;6.43;;;4.80;;
78740;SDS011;68062;48.726;9.370;2024-02-15T01:19:24;6.10;;;4.87;;
78740;SDS011;68062;48.726;9.370;2024-02-15T01:21:52;7.17;;;4.67;;
78740;SDS011;68062;48.726;9.370;2024-02-15T01:24:24;7.27;;;5.20;;
78740;SDS011;68062;48.726;9.370;2024-02-15T01:26:52;6.40;;;4.60;;
78740;SDS011;68062;48.726;9.370;2024-02-15T01:29:20;5.60;;;4.83;;
78740;SDS011;68062;48.726;9.370;2024-02-15T01:31:50;5.20;;;4.90;;
78740;SDS011;68062;48.726;9.370;2024-02-15T01:34:17;6.20;;;4.97;;
78740;SDS011;68062;48.726;9.370;2024-02-15T01:36:47;4.57;;;4.30;;
78740;SDS011;68062;48.726;9.370;2024-02-15T01:39:16;4.93;;;4.60;;
78740;SDS011;68062;48.726;9.370;2024-02-15T01:41:46;6.73;;;5.10;;
78740;SDS011;68062;48.726;9.370;2024-02-15T01:44:17;5.63;;;4.50;;
78740;SDS011;68062;48.726;9.370;2024-02-15T01:46:47;6.30;;;4.73;;
78740;SDS011;68062;48.726;9.370;2024-02-15T01:49:17;12.23;;;5.50;;
78740;SDS011;68062;48.726;9.370;2024-02-15T01:51:45;7.80;;;4.70;;
78740;SDS011;68062;48.726;9.370;2024-02-15T01:54:14;7.50;;;5.73;;
78740;SDS011;68062;48.726;9.370;2024-02-15T01:56:44;9.70;;;5.47;;
78740;SDS011;68062;48.726;9.370;2024-02-15T01:59:13;7.57;;;4.90;;
78740;SDS011;68062;48.726;9.370;2024-02-15T02:01:44;5.33;;;5.03;;
78740;SDS011;68062;48.726;9.370;2024-02-15T02:04:13;6.87;;;6.33;;
78740;SDS011;68062;48.726;9.370;2024-02-15T02:06:42;9.17;;;4.40;;
78740;SDS011;68062;48.726;9.370;2024-02-15T02:09:10;7.23;;;5.80;;
78740;SDS011;68062;48.726;9.370;2024-02-15T02:11:39;6.37;;;5.10;;
78740;SDS011;68062;48.726;9.370;2024-02-15T02:14:07;4.80;;;4.50;;
78740;SDS011;68062;48.726;9.370;2024-02-15T02:16:35;5.20;;;4.40;;
78740;SDS011;68062;48.726;9.370;2024-02-15T02:19:03;5.00;;;4.50;;
78740;SDS011;68062;48.726;9.370;2024-02-15T02:21:36;6.77;;;4.77;;
78740;SDS011;68062;48.726;9.370;2024-02-15T02:24:09;7.20;;;4.80;;
78740;SDS011;68062;48.726;9.370;2024-02-15T02:26:42;5.17;;;4.50;;
78740;SDS011;68062;48.726;9.370;2024-02-15T02:29:10;6.77;;;4.40;;
78740;SDS011;68062;48.726;9.370;2024-02-15T02:31:38;6.77;;;4.87;;
78740;SDS011;68062;48.726;9.370;2024-02-15T02:34:06;6.80;;;4.10;;
78740;SDS011;68062;48.726;9.370;2024-02-15T02:36:35;4.63;;;4.33;;
78740;SDS011;68062;48.726;9.370;2024-02-15T02:39:04;4.83;;;3.77;;
78740;SDS011;68062;48.726;9.370;2024-02-15T02:41:33;3.80;;;3.60;;
78740;SDS011;68062;48.726;9.370;2024-02-15T02:44:03;3.87;;;3.50;;
78740;SDS011;68062;48.726;9.370;2024-02-15T02:46:31;5.80;;;3.93;;
78740;SDS011;68062;48.726;9.370;2024-02-15T02:48:58;4.93;;;2.67;;
78740;SDS011;68062;48.726;9.370;2024-02-15T02:51:29;5.17;;;3.40;;
78740;SDS011;68062;48.726;9.370;2024-02-15T02:53:57;3.97;;;3.70;;
78740;SDS011;68062;48.726;9.370;2024-02-15T02:56:25;7.70;;;4.97;;
78740;SDS011;68062;48.726;9.370;2024-02-15T02:58:52;4.50;;;3.90;;
78740;SDS011;68062;48.726;9.370;2024-02-15T03:01:23;3.47;;;3.27;;
78740;SDS011;68062;48.726;9.370;2024-02-15T03:03:52;3.57;;;3.03;;
78740;SDS011;68062;48.726;9.370;2024-02-15T03:06:21;6.03;;;2.93;;
78740;SDS011;68062;48.726;9.370;2024-02-15T03:08:51;2.87;;;2.40;;
78740;SDS011;68062;48.726;9.370;2024-02-15T03:11:20;4.23;;;3.37;;
78740;SDS011;68062;48.726;9.370;2024-02-15T03:13:49;3.37;;;2.90;;
78740;SDS011;68062;48.726;9.370;2024-02-15T03:16:16;2.90;;;2.47;;
78740;SDS011;68062;48.726;9.370;2024-02-15T03:18:46;3.10;;;2.87;;
78740;SDS011;68062;48.726;9.370;2024-02-15T03:21:15;3.70;;;2.60;;
78740;SDS011;68062;48.726;9.370;2024-02-15T03:23:45;3.03;;;2.57;;
78740;SDS011;68062;48.726;9.370;2024-02-15T03:26:13;4.07;;;2.40;;
78740;SDS011;68062;48.726;9.370;2024-02-15T03:28:41;3.07;;;2.33;;
78740;SDS011;68062;48.726;9.370;2024-02-15T03:31:10;2.70;;;2.50;;
78740;SDS011;68062;48.726;9.370;2024-02-15T03:33:39;3.70;;;2.80;;
78740;SDS011;68062;48.726;9.370;2024-02-15T03:36:09;3.27;;;2.60;;
78740;SDS011;68062;48.726;9.370;2024-02-15T03:38:42;4.23;;;2.97;;
78740;SDS011;68062;48.726;9.370;2024-02-15T03:41:11;4.20;;;3.40;;
78740;SDS011;68062;48.726;9.370;2024-02-15T03:43:39;4.10;;;3.20;;
78740;SDS011;68062;48.726;9.370;2024-02-15T03:46:07;4.20;;;2.83;;
78740;SDS011;68062;48.726;9.370;2024-02-15T03:48:41;4.10;;;2.87;;
78740;SDS011;68062;48.726;9.370;2024-02-15T03:51:12;3.50;;;3.30;;
78740;SDS011;68062;48.726;9.370;2024-02-15T03:53:43;7.50;;;3.40;;
78740;SDS011;68062;48.726;9.370;2024-02-15T03:56:14;7.60;;;3.60;;
78740;SDS011;68062;48.726;9.370;2024-02-15T03:58:42;4.00;;;3.03;;
78740;SDS011;68062;48.726;9.370;2024-02-15T04:01:10;5.27;;;3.23;;
78740;SDS011;68062;48.726;9.370;2024-02-15T04:03:40;2.80;;;2.67;;
78740;SDS011;68062;48.726;9.370;2024-02-15T04:06:08;5.23;;;3.60;;
78740;SDS011;68062;48.726;9.370;2024-02-15T04:08:39;6.03;;;3.20;;
78740;SDS011;68062;48.726;9.370;2024-02-15T04:11:07;4.20;;;2.83;;
78740;SDS011;68062;48.726;9.370;2024-02-15T04:13:34;3.77;;;3.30;;
78740;SDS011;68062;48.726;9.370;2024-02-15T04:16:03;2.83;;;2.43;;
78740;SDS011;68062;48.726;9.370;2024-02-15T04:18:35;5.20;;;3.37;;
78740;SDS011;68062;48.726;9.370;2024-02-15T04:23:55;3.97;;;3.60;;
78740;SDS011;68062;48.726;9.370;2024-02-15T04:26:23;5.30;;;3.57;;
78740;SDS011;68062;48.726;9.370;2024-02-15T04:28:53;3.97;;;3.83;;
78740;SDS011;68062;48.726;9.370;2024-02-15T04:31:20;4.30;;;3.00;;
78740;SDS011;68062;48.726;9.370;2024-02-15T04:33:53;4.30;;;3.80;;
78740;SDS011;68062;48.726;9.370;2024-02-15T04:36:21;4.23;;;3.17;;
78740;SDS011;68062;48.726;9.370;2024-02-15T04:38:51;5.40;;;3.80;;
78740;SDS011;68062;48.726;9.370;2024-02-15T04:41:21;4.43;;;4.10;;
78740;SDS011;68062;48.726;9.370;2024-02-15T04:43:49;3.43;;;3.23;;
78740;SDS011;68062;48.726;9.370;2024-02-15T04:46:18;4.63;;;3.77;;
78740;SDS011;68062;48.726;9.370;2024-02-15T04:48:48;5.70;;;3.77;;
78740;SDS011;68062;48.726;9.370;2024-02-15T04:51:17;3.23;;;3.03;;
78740;SDS011;68062;48.726;9.370;2024-02-15T04:53:46;6.50;;;3.40;;
78740;SDS011;68062;48.726;9.370;2024-02-15T04:56:15;4.27;;;3.90;;
78740;SDS011;68062;48.726;9.370;2024-02-15T04:58:47;3.77;;;3.10;;
78740;SDS011;68062;48.726;9.370;2024-02-15T05:01:15;4.47;;;3.40;;
78740;SDS011;68062;48.726;9.370;2024-02-15T05:03:43;4.77;;;3.60;;
78740;SDS011;68062;48.726;9.370;2024-02-15T05:06:13;5.60;;;3.97;;
78740;SDS011;68062;48.726;9.370;2024-02-15T05:08:41;5.80;;;3.53;;
78740;SDS011;68062;48.726;9.370;2024-02-15T05:11:09;8.17;;;3.80;;
78740;SDS011;68062;48.726;9.370;2024-02-15T05:13:43;6.40;;;4.30;;
78740;SDS011;68062;48.726;9.370;2024-02-15T05:16:13;4.70;;;3.37;;
78740;SDS011;68062;48.726;9.370;2024-02-15T05:18:40;5.80;;;3.10;;
78740;SDS011;68062;48.726;9.370;2024-02-15T05:21:08;4.67;;;3.70;;
78740;SDS011;68062;48.726;9.370;2024-02-15T05:23:36;5.30;;;3.50;;
78740;SDS011;68062;48.726;9.370;2024-02-15T05:26:06;7.17;;;4.73;;
78740;SDS011;68062;48.726;9.370;2024-02-15T05:28:34;6.80;;;4.40;;
78740;SDS011;68062;48.726;9.370;2024-02-15T05:31:09;5.30;;;3.93;;
78740;SDS011;68062;48.726;9.370;2024-02-15T05:33:39;7.70;;;4.37;;
78740;SDS011;68062;48.726;9.370;2024-02-15T05:36:09;4.40;;;4.00;;
78740;SDS011;68062;48.726;9.370;2024-02-15T05:38:38;6.97;;;4.13;;
78740;SDS011;68062;48.726;9.370;2024-02-15T05:41:07;10.67;;;5.60;;
78740;SDS011;68062;48.726;9.370;2024-02-15T05:43:35;15.33;;;7.50;;
78740;SDS011;68062;48.726;9.370;2024-02-15T05:46:03;20.47;;;8.93;;
78740;SDS011;68062;48.726;9.370;2024-02-15T05:48:32;21.03;;;9.03;;
78740;SDS011;68062;48.726;9.370;2024-02-15T05:51:06;8.83;;;5.90;;
78740;SDS011;68062;48.726;9.370;2024-02-15T05:53:36;16.27;;;5.87;;
78740;SDS011;68062;48.726;9.370;2024-02-15T05:56:05;12.10;;;6.37;;
78740;SDS011;68062;48.726;9.370;2024-02-15T05:58:34;11.90;;;6.60;;
78740;SDS011;68062;48.726;9.370;2024-02-15T06:01:03;9.23;;;5.93;;
78740;SDS011;68062;48.726;9.370;2024-02-15T06:03:33;11.37;;;6.27;;
78740;SDS011;68062;48.726;9.370;2024-02-15T06:06:05;10.80;;;5.10;;
78740;SDS011;68062;48.726;9.370;2024-02-15T06:08:34;9.33;;;5.63;;
78740;SDS011;68062;48.726;9.370;2024-02-15T06:11:03;9.07;;;6.10;;
78740;SDS011;68062;48.726;9.370;2024-02-15T06:13:31;13.53;;;6.80;;
78740;SDS011;68062;48.726;9.370;2024-02-15T06:16:00;14.13;;;6.80;;
78740;SDS011;68062;48.726;9.370;2024-02-15T06:18:28;12.40;;;7.37;;
78740;SDS011;68062;48.726;9.370;2024-02-15T06:20:58;11.80;;;7.07;;
78740;SDS011;68062;48.726;9.370;2024-02-15T06:23:28;13.77;;;6.87;;
78740;SDS011;68062;48.726;9.370;2024-02-15T06:25:56;12.13;;;7.20;;
78740;SDS011;68062;48.726;9.370;2024-02-15T06:28:24;14.20;;;7.30;;
78740;SDS011;68062;48.726;9.370;2024-02-15T06:31:10;16.93;;;7.70;;
78740;SDS011;68062;48.726;9.370;2024-02-15T06:33:56;12.43;;;7.37;;
78740;SDS011;68062;48.726;9.370;2024-02-15T06:36:47;9.17;;;6.73;;
78740;SDS011;68062;48.726;9.370;2024-02-15T06:39:35;11.37;;;7.13;;
78740;SDS011;68062;48.726;9.370;2024-02-15T06:42:09;11.43;;;7.07;;
78740;SDS011;68062;48.726;9.370;2024-02-15T06:44:38;16.20;;;7.83;;
78740;SDS011;68062;48.726;9.370;2024-02-15T06:47:07;9.57;;;6.67;;
78740;SDS011;68062;48.726;9.370;2024-02-15T06:49:37;10.57;;;6.67;;
78740;SDS011;68062;48.726;9.370;2024-02-15T06:52:07;9.60;;;6.47;;
78740;SDS011;68062;48.726;9.370;2024-02-15T06:54:36;12.07;;;7.50;;
78740;SDS011;68062;48.726;9.370;2024-02-15T06:57:04;9.63;;;6.57;;
78740;SDS011;68062;48.726;9.370;2024-02-15T06:59:33;14.93;;;6.87;;
78740;SDS011;68062;48.726;9.370;2024-02-15T07:02:01;8.87;;;6.83;;
78740;SDS011;68062;48.726;9.370;2024-02-15T07:04:31;8.00;;;6.90;;
78740;SDS011;68062;48.726;9.370;2024-02-15T07:06:59;10.10;;;6.90;;
78740;SDS011;68062;48.726;9.370;2024-02-15T07:09:29;11.50;;;6.97;;
78740;SDS011;68062;48.726;9.370;2024-02-15T07:11:58;15.10;;;7.70;;
78740;SDS011;68062;48.726;9.370;2024-02-15T07:14:28;10.47;;;7.83;;
78740;SDS011;68062;48.726;9.370;2024-02-15T07:16:56;11.83;;;8.33;;
78740;SDS011;68062;48.726;9.370;2024-02-15T07:19:25;13.37;;;9.37;;
78740;SDS011;68062;48.726;9.370;2024-02-15T07:21:53;11.20;;;7.87;;
78740;SDS011;68062;48.726;9.370;2024-02-15T07:24:23;12.30;;;8.90;;
78740;SDS011;68062;48.726;9.370;2024-02-15T07:26:53;14.00;;;9.13;;
78740;SDS011;68062;48.726;9.370;2024-02-15T07:29:25;10.87;;;8.33;;
78740;SDS011;68062;48.726;9.370;2024-02-15T07:31:54;8.50;;;7.60;;
78740;SDS011;68062;48.726;9.370;2024-02-15T07:34:21;10.70;;;8.00;;
78740;SDS011;68062;48.726;9.370;2024-02-15T07:36:51;10.73;;;7.53;;
78740;SDS011;68062;48.726;9.370;2024-02-15T07:39:19;9.20;;;7.77;;
78740;SDS011;68062;48.726;9.370;2024-02-15T07:41:51;9.67;;;7.10;;
78740;SDS011;68062;48.726;9.370;2024-02-15T07:44:19;10.50;;;7.80;;
78740;SDS011;68062;48.726;9.370;2024-02-15T07:46:49;12.00;;;8.90;;
78740;SDS011;68062;48.726;9.370;2024-02-15T07:49:17;14.53;;;9.20;;
78740;SDS011;68062;48.726;9.370;2024-02-15T07:51:46;10.83;;;9.67;;
78740;SDS011;68062;48.726;9.370;2024-02-15T07:54:18;12.43;;;9.00;;
78740;SDS011;68062;48.726;9.370;2024-02-15T07:56:47;14.60;;;8.80;;
78740;SDS011;68062;48.726;9.370;2024-02-15T07:59:15;14.63;;;7.93;;
78740;SDS011;68062;48.726;9.370;2024-02-15T08:01:43;8.27;;;6.30;;
78740;SDS011;68062;48.726;9.370;2024-02-15T08:04:13;7.70;;;5.63;;
78740;SDS011;68062;48.726;9.370;2024-02-15T08:06:43;7.10;;;5.50;;
78740;SDS011;68062;48.726;9.370;2024-02-15T08:09:12;8.27;;;6.60;;
78740;SDS011;68062;48.726;9.370;2024-02-15T08:11:40;5.73;;;5.43;;
78740;SDS011;68062;48.726;9.370;2024-02-15T08:14:09;7.30;;;5.60;;
78740;SDS011;68062;48.726;9.370;2024-02-15T08:16:39;7.73;;;5.90;;
78740;SDS011;68062;48.726;9.370;2024-02-15T08:19:08;8.20;;;5.40;;
78740;SDS011;68062;48.726;9.370;2024-02-15T08:21:39;7.83;;;5.40;;
78740;SDS011;68062;48.726;9.370;2024-02-15T08:24:08;7.20;;;5.10;;
78740;SDS011;68062;48.726;9.370;2024-02-15T08:26:36;5.40;;;4.43;;
78740;SDS011;68062;48.726;9.370;2024-02-15T08:29:05;5.13;;;4.83;;
78740;SDS011;68062;48.726;9.370;2024-02-15T08:31:33;5.60;;;4.87;;
78740;SDS011;68062;48.726;9.370;2024-02-15T08:34:01;5.70;;;4.67;;
78740;SDS011;68062;48.726;9.370;2024-02-15T08:36:32;6.63;;;4.30;;
78740;SDS011;68062;48.726;9.370;2024-02-15T08:39:04;9.73;;;5.67;;
78740;SDS011;68062;48.726;9.370;2024-02-15T08:41:32;7.40;;;5.00;;
78740;SDS011;68062;48.726;9.370;2024-02-15T08:44:01;6.93;;;4.73;;
78740;SDS011;68062;48.726;9.370;2024-02-15T08:46:32;6.43;;;4.60;;
78740;SDS011;68062;48.726;9.370;2024-02-15T08:49:00;5.17;;;4.20;;
78740;SDS011;68062;48.726;9.370;2024-02-15T08:51:28;5.17;;;4.90;;
78740;SDS011;68062;48.726;9.370;2024-02-15T08:53:56;7.30;;;4.30;;
78740;SDS011;68062;48.726;9.370;2024-02-15T08:56:26;6.00;;;4.20;;
78740;SDS011;68062;48.726;9.370;2024-02-15T08:58:54;4.70;;;4.30;;
78740;SDS011;68062;48.726;9.370;2024-02-15T09:01:27;5.37;;;4.40;;
78740;SDS011;68062;48.726;9.370;2024-02-15T09:03:57;4.40;;;3.90;;
78740;SDS011;68062;48.726;9.370;2024-02-15T09:06:25;6.07;;;4.40;;
78740;SDS011;68062;48.726;9.370;2024-02-15T09:08:53;7.50;;;4.57;;
78740;SDS011;68062;48.726;9.370;2024-02-15T09:11:21;4.10;;;3.90;;
78740;SDS011;68062;48.726;9.370;2024-02-15T09:13:51;6.50;;;4.20;;
78740;SDS011;68062;48.726;9.370;2024-02-15T09:16:19;4.67;;;3.80;;
78740;SDS011;68062;48.726;9.370;2024-02-15T09:18:48;5.10;;;4.53;;
78740;SDS011;68062;48.726;9.370;2024-02-15T09:21:17;8.20;;;5.30;;
78740;SDS011;68062;48.726;9.370;2024-02-15T09:23:45;4.33;;;4.03;;
78740;SDS011;68062;48.726;9.370;2024-02-15T09:26:13;10.30;;;5.27;;
78740;SDS011;68062;48.726;9.370;2024-02-15T09:28:41;4.83;;;4.30;;
78740;SDS011;68062;48.726;9.370;2024-02-15T09:31:11;5.30;;;3.80;;
78740;SDS011;68062;48.726;9.370;2024-02-15T09:33:40;5.70;;;4.40;;
78740;SDS011;68062;48.726;9.370;2024-02-15T09:36:08;6.10;;;4.60;;
78740;SDS011;68062;48.726;9.370;2024-02-15T09:38:38;4.63;;;3.90;;
78740;SDS011;68062;48.726;9.370;2024-02-15T09:41:06;4.00;;;3.80;;
78740;SDS011;68062;48.726;9.370;2024-02-15T09:43:35;5.23;;;4.63;;
78740;SDS011;68062;48.726;9.370;2024-02-15T09:46:03;4.93;;;3.70;;
78740;SDS011;68062;48.726;9.370;2024-02-15T09:48:32;4.23;;;3.67;;
78740;SDS011;68062;48.726;9.370;2024-02-15T09:51:02;4.10;;;3.60;;
78740;SDS011;68062;48.726;9.370;2024-02-15T09:53:31;5.67;;;4.43;;
78740;SDS011;68062;48.726;9.370;2024-02-15T09:55:59;5.73;;;3.90;;
78740;SDS011;68062;48.726;9.370;2024-02-15T09:58:30;5.17;;;3.90;;
78740;SDS011;68062;48.726;9.370;2024-02-15T10:01:01;5.90;;;3.53;;
78740;SDS011;68062;48.726;9.370;2024-02-15T10:03:33;4.20;;;3.10;;
78740;SDS011;68062;48.726;9.370;2024-02-15T10:06:03;5.70;;;3.40;;
78740;SDS011;68062;48.726;9.370;2024-02-15T10:08:32;4.33;;;3.30;;
78740;SDS011;68062;48.726;9.370;2024-02-15T10:11:06;4.77;;;3.90;;
78740;SDS011;68062;48.726;9.370;2024-02-15T10:13:36;5.77;;;3.50;;
78740;SDS011;68062;48.726;9.370;2024-02-15T10:16:15;10.43;;;4.33;;
78740;SDS011;68062;48.726;9.370;2024-02-15T10:18:45;7.13;;;3.77;;
78740;SDS011;68062;48.726;9.370;2024-02-15T10:21:24;4.80;;;3.13;;
78740;SDS011;68062;48.726;9.370;2024-02-15T10:24:02;6.33;;;3.53;;
78740;SDS011;68062;48.726;9.370;2024-02-15T10:26:33;6.90;;;3.70;;
78740;SDS011;68062;48.726;9.370;2024-02-15T10:29:05;7.60;;;3.70;;
78740;SDS011;68062;48.726;9.370;2024-02-15T10:31:36;6.67;;;3.13;;
78740;SDS011;68062;48.726;9.370;2024-02-15T10:34:06;3.70;;;3.03;;
78740;SDS011;68062;48.726;9.370;2024-02-15T10:36:35;8.20;;;3.07;;
78740;SDS011;68062;48.726;9.370;2024-02-15T10:39:12;6.50;;;2.93;;
78740;SDS011;68062;48.726;9.370;2024-02-15T10:41:44;5.97;;;2.90;;
78740;SDS011;68062;48.726;9.370;2024-02-15T10:44:17;9.00;;;2.80;;
78740;SDS011;68062;48.726;9.370;2024-02-15T10:46:46;5.73;;;2.10;;
78740;SDS011;68062;48.726;9.370;2024-02-15T10:49:19;3.00;;;2.00;;
78740;SDS011;68062;48.726;9.370;2024-02-15T10:51:50;3.90;;;2.20;;
78740;SDS011;68062;48.726;9.370;2024-02-15T10:58:34;3.50;;;2.03;;
78740;SDS011;68062;48.726;9.370;2024-02-15T11:01:13;3.20;;;1.70;;
78740;SDS011;68062;48.726;9.370;2024-02-15T11:03:47;2.10;;;1.50;;
78740;SDS011;68062;48.726;9.370;2024-02-15T11:06:20;1.93;;;1.40;;
78740;SDS011;68062;48.726;9.370;2024-02-15T11:08:51;3.03;;;1.20;;
78740;SDS011;68062;48.726;9.370;2024-02-15T11:11:19;4.63;;;1.47;;
78740;SDS011;68062;48.726;9.370;2024-02-15T11:13:48;1.37;;;1.37;;
78740;SDS011;68062;48.726;9.370;2024-02-15T11:19:08;3.57;;;1.30;;
78740;SDS011;68062;48.726;9.370;2024-02-15T11:21:54;3.00;;;1.50;;
78740;SDS011;68062;48.726;9.370;2024-02-15T11:24:26;2.53;;;1.13;;
78740;SDS011;68062;48.726;9.370;2024-02-15T11:26:57;2.33;;;1.10;;
78740;SDS011;68062;48.726;9.370;2024-02-15T11:29:47;2.40;;;1.33;;
78740;SDS011;68062;48.726;9.370;2024-02-15T11:35:07;2.07;;;1.40;;
78740;SDS011;68062;48.726;9.370;2024-02-15T11:43:45;2.93;;;1.40;;
78740;SDS011;68062;48.726;9.370;2024-02-15T11:46:17;3.73;;;1.87;;
78740;SDS011;68062;48.726;9.370;2024-02-15T11:48:48;2.33;;;1.40;;
78740;SDS011;68062;48.726;9.370;2024-02-15T11:51:31;2.73;;;1.90;;
78740;SDS011;68062;48.726;9.370;2024-02-15T11:54:05;2.83;;;1.20;;
78740;SDS011;68062;48.726;9.370;2024-02-15T11:56:51;2.97;;;1.43;;
78740;SDS011;68062;48.726;9.370;2024-02-15T11:59:21;2.37;;;1.20;;
78740;SDS011;68062;48.726;9.370;2024-02-15T12:02:09;3.13;;;1.60;;
78740;SDS011;68062;48.726;9.370;2024-02-15T12:04:54;2.47;;;1.50;;
78740;SDS011;68062;48.726;9.370;2024-02-15T12:07:54;2.17;;;1.53;;
78740;SDS011;68062;48.726;9.370;2024-02-15T12:10:41;2.60;;;1.80;;
78740;SDS011;68062;48.726;9.370;2024-02-15T12:13:26;2.93;;;1.20;;
78740;SDS011;68062;48.726;9.370;2024-02-15T12:16:24;2.90;;;1.27;;
78740;SDS011;68062;48.726;9.370;2024-02-15T12:19:09;3.73;;;1.50;;
78740;SDS011;68062;48.726;9.370;2024-02-15T12:21:37;4.60;;;1.33;;
78740;SDS011;68062;48.726;9.370;2024-02-15T12:24:07;4.13;;;1.17;;
78740;SDS011;68062;48.726;9.370;2024-02-15T12:26:38;1.57;;;1.20;;
78740;SDS011;68062;48.726;9.370;2024-02-15T12:29:07;2.60;;;1.30;;
78740;SDS011;68062;48.726;9.370;2024-02-15T12:31:35;2.50;;;1.23;;
78740;SDS011;68062;48.726;9.370;2024-02-15T12:34:04;2.40;;;1.40;;
78740;SDS011;68062;48.726;9.370;2024-02-15T12:36:34;2.60;;;1.50;;
78740;SDS011;68062;48.726;9.370;2024-02-15T12:39:05;2.40;;;1.70;;
78740;SDS011;68062;48.726;9.370;2024-02-15T12:41:40;2.30;;;1.37;;
78740;SDS011;68062;48.726;9.370;2024-02-15T12:44:09;3.77;;;1.67;;
78740;SDS011;68062;48.726;9.370;2024-02-15T12:46:37;3.33;;;1.57;;
78740;SDS011;68062;48.726;9.370;2024-02-15T12:49:07;2.90;;;1.63;;
78740;SDS011;68062;48.726;9.370;2024-02-15T12:51:40;2.80;;;2.10;;
78740;SDS011;68062;48.726;9.370;2024-02-15T12:54:18;2.83;;;1.60;;
78740;SDS011;68062;48.726;9.370;2024-02-15T12:56:49;1.93;;;1.80;;
78740;SDS011;68062;48.726;9.370;2024-02-15T12:59:18;3.63;;;2.03;;
78740;SDS011;68062;48.726;9.370;2024-02-15T13:01:47;6.50;;;1.97;;
78740;SDS011;68062;48.726;9.370;2024-02-15T13:04:21;2.93;;;1.73;;
78740;SDS011;68062;48.726;9.370;2024-02-15T13:06:50;2.40;;;1.60;;
78740;SDS011;68062;48.726;9.370;2024-02-15T13:09:18;2.93;;;1.50;;
78740;SDS011;68062;48.726;9.370;2024-02-15T13:11:50;2.40;;;1.63;;
78740;SDS011;68062;48.726;9.370;2024-02-15T13:14:20;4.90;;;1.87;;
78740;SDS011;68062;48.726;9.370;2024-02-15T13:16:48;4.23;;;1.70;;
78740;SDS011;68062;48.726;9.370;2024-02-15T13:19:16;2.70;;;1.40;;
78740;SDS011;68062;48.726;9.370;2024-02-15T13:21:44;2.93;;;1.40;;
78740;SDS011;68062;48.726;9.370;2024-02-15T13:24:19;2.07;;;1.57;;
78740;SDS011;68062;48.726;9.370;2024-02-15T13:26:53;5.23;;;1.60;;
78740;SDS011;68062;48.726;9.370;2024-02-15T13:29:25;2.93;;;1.37;;
78740;SDS011;68062;48.726;9.370;2024-02-15T13:31:55;3.33;;;1.20;;
78740;SDS011;68062;48.726;9.370;2024-02-15T13:34:22;5.10;;;1.60;;
78740;SDS011;68062;48.726;9.370;2024-02-15T13:36:51;4.27;;;2.17;;
78740;SDS011;68062;48.726;9.370;2024-02-15T13:39:21;4.07;;;1.53;;
78740;SDS011;68062;48.726;9.370;2024-02-15T13:41:49;2.27;;;1.40;;
78740;SDS011;68062;48.726;9.370;2024-02-15T13:44:20;2.83;;;1.30;;
78740;SDS011;68062;48.726;9.370;2024-02-15T13:46:50;2.37;;;1.23;;
78740;SDS011;68062;48.726;9.370;2024-02-15T13:49:17;1.53;;;1.20;;
78740;SDS011;68062;48.726;9.370;2024-02-15T13:51:57;2.07;;;1.40;;
78740;SDS011;68062;48.726;9.370;2024-02-15T13:54:29;2.27;;;1.53;;
78740;SDS011;68062;48.726;9.370;2024-02-15T13:57:01;1.93;;;1.20;;
78740;SDS011;68062;48.726;9.370;2024-02-15T13:59:30;4.87;;;1.70;;
78740;SDS011;68062;48.726;9.370;2024-02-15T14:01:58;4.30;;;1.30;;
78740;SDS011;68062;48.726;9.370;2024-02-15T14:04:26;1.50;;;0.90;;
78740;SDS011;68062;48.726;9.370;2024-02-15T14:06:54;2.30;;;1.40;;
78740;SDS011;68062;48.726;9.370;2024-02-15T14:09:23;3.53;;;1.50;;
78740;SDS011;68062;48.726;9.370;2024-02-15T14:11:53;1.93;;;1.00;;
78740;SDS011;68062;48.726;9.370;2024-02-15T14:14:21;2.73;;;1.20;;
78740;SDS011;68062;48.726;9.370;2024-02-15T14:16:50;1.60;;;1.27;;
78740;SDS011;68062;48.726;9.370;2024-02-15T14:19:19;3.47;;;1.40;;
78740;SDS011;68062;48.726;9.370;2024-02-15T14:21:48;3.27;;;1.47;;
78740;SDS011;68062;48.726;9.370;2024-02-15T14:24:15;1.90;;;1.20;;
78740;SDS011;68062;48.726;9.370;2024-02-15T14:26:45;2.67;;;1.30;;
78740;SDS011;68062;48.726;9.370;2024-02-15T14:29:13;4.03;;;1.27;;
78740;SDS011;68062;48.726;9.370;2024-02-15T14:31:42;2.27;;;1.33;;
78740;SDS011;68062;48.726;9.370;2024-02-15T14:34:29;3.23;;;1.37;;
78740;SDS011;68062;48.726;9.370;2024-02-15T14:36:58;3.53;;;1.60;;
78740;SDS011;68062;48.726;9.370;2024-02-15T14:39:27;4.00;;;1.90;;
78740;SDS011;68062;48.726;9.370;2024-02-15T14:41:56;2.37;;;1.70;;
78740;SDS011;68062;48.726;9.370;2024-02-15T14:44:25;1.20;;;1.10;;
78740;SDS011;68062;48.726;9.370;2024-02-15T14:46:54;2.03;;;1.43;;
78740;SDS011;68062;48.726;9.370;2024-02-15T14:49:22;2.40;;;1.30;;
78740;SDS011;68062;48.726;9.370;2024-02-15T14:51:51;4.20;;;1.47;;
78740;SDS011;68062;48.726;9.370;2024-02-15T14:54:19;1.50;;;1.30;;
78740;SDS011;68062;48.726;9.370;2024-02-15T14:56:49;3.50;;;1.30;;
78740;SDS011;68062;48.726;9.370;2024-02-15T14:59:17;2.33;;;1.30;;
78740;SDS011;68062;48.726;9.370;2024-02-15T15:01:45;7.23;;;2.07;;
78740;SDS011;68062;48.726;9.370;2024-02-15T15:04:13;3.47;;;1.53;;
78740;SDS011;68062;48.726;9.370;2024-02-15T15:06:43;1.37;;;1.00;;
78740;SDS011;68062;48.726;9.370;2024-02-15T15:09:31;4.20;;;1.70;;
78740;SDS011;68062;48.726;9.370;2024-02-15T15:12:16;3.17;;;1.73;;
78740;SDS011;68062;48.726;9.370;2024-02-15T15:15:02;3.00;;;1.47;;
78740;SDS011;68062;48.726;9.370;2024-02-15T15:17:31;2.23;;;1.67;;
78740;SDS011;68062;48.726;9.370;2024-02-15T15:20:02;2.90;;;1.60;;
78740;SDS011;68062;48.726;9.370;2024-02-15T15:22:35;6.23;;;1.80;;